sensor_id;sensor_type;location;lat;lon;timestamp;P1;durP1;ratioP1;P2;durP2;ratioP2
42384;SDS011;28042;43.986;22.860;2023-06-10T05:52:36;8.32;;;3.15;;
42384;SDS011;28042;43.986;22.860;2023-06-10T05:55:02;5.50;;;2.70;;
42384;SDS011;28042;43.986;22.860;2023-06-10T05:57:28;5.10;;;2.90;;
42384;SDS011;28042;43.986;22.860;2023-06-10T05:59:54;7.22;;;3.03;;
42384;SDS011;28042;43.986;22.860;2023-06-10T06:02:19;7.00;;;2.70;;
42384;SDS011;28042;43.986;22.860;2023-06-10T06:04:45;5.53;;;3.13;;
42384;SDS011;28042;43.986;22.860;2023-06-10T06:07:10;4.47;;;3.28;;
42384;SDS011;28042;43.986;22.860;2023-06-10T06:09:36;6.07;;;2.85;;
42384;SDS011;28042;43.986;22.860;2023-06-10T06:12:01;3.83;;;2.65;;
42384;SDS011;28042;43.986;22.860;2023-06-10T06:14:30;6.60;;;3.13;;
42384;SDS011;28042;43.986;22.860;2023-06-10T06:16:56;5.32;;;2.67;;
42384;SDS011;28042;43.986;22.860;2023-06-10T06:19:21;5.55;;;2.50;;
42384;SDS011;28042;43.986;22.860;2023-06-10T06:21:47;6.30;;;2.90;;
42384;SDS011;28042;43.986;22.860;2023-06-10T06:24:12;6.45;;;2.90;;
42384;SDS011;28042;43.986;22.860;2023-06-10T06:26:39;14.37;;;4.20;;
42384;SDS011;28042;43.986;22.860;2023-06-10T06:29:04;5.25;;;2.70;;
42384;SDS011;28042;43.986;22.860;2023-06-10T06:31:30;4.75;;;2.83;;
42384;SDS011;28042;43.986;22.860;2023-06-10T06:33:55;8.48;;;2.92;;
42384;SDS011;28042;43.986;22.860;2023-06-10T06:36:21;5.78;;;2.85;;
42384;SDS011;28042;43.986;22.860;2023-06-10T06:38:46;6.13;;;2.90;;
42384;SDS011;28042;43.986;22.860;2023-06-10T06:41:12;6.75;;;2.70;;
42384;SDS011;28042;43.986;22.860;2023-06-10T06:43:37;5.05;;;2.58;;
42384;SDS011;28042;43.986;22.860;2023-06-10T06:46:03;6.63;;;2.72;;
42384;SDS011;28042;43.986;22.860;2023-06-10T06:48:28;5.90;;;2.63;;
42384;SDS011;28042;43.986;22.860;2023-06-10T06:50:54;6.78;;;2.75;;
42384;SDS011;28042;43.986;22.860;2023-06-10T06:53:21;4.22;;;2.63;;
42384;SDS011;28042;43.986;22.860;2023-06-10T06:55:47;12.25;;;2.72;;
42384;SDS011;28042;43.986;22.860;2023-06-10T06:58:12;7.22;;;2.70;;
42384;SDS011;28042;43.986;22.860;2023-06-10T07:00:38;8.90;;;2.90;;
42384;SDS011;28042;43.986;22.860;2023-06-10T07:03:23;6.07;;;2.97;;
42384;SDS011;28042;43.986;22.860;2023-06-10T07:05:48;3.45;;;2.35;;
42384;SDS011;28042;43.986;22.860;2023-06-10T07:08:14;4.10;;;2.75;;
42384;SDS011;28042;43.986;22.860;2023-06-10T07:10:39;7.50;;;2.72;;
42384;SDS011;28042;43.986;22.860;2023-06-10T07:13:05;8.27;;;2.80;;
42384;SDS011;28042;43.986;22.860;2023-06-10T07:15:30;5.80;;;2.42;;
42384;SDS011;28042;43.986;22.860;2023-06-10T07:17:57;10.20;;;2.72;;
42384;SDS011;28042;43.986;22.860;2023-06-10T07:20:23;5.07;;;2.67;;
42384;SDS011;28042;43.986;22.860;2023-06-10T07:22:48;6.10;;;2.70;;
42384;SDS011;28042;43.986;22.860;2023-06-10T07:25:14;4.78;;;2.42;;
42384;SDS011;28042;43.986;22.860;2023-06-10T07:27:40;3.80;;;2.60;;
42384;SDS011;28042;43.986;22.860;2023-06-10T07:30:07;5.55;;;2.78;;
42384;SDS011;28042;43.986;22.860;2023-06-10T07:32:36;4.35;;;2.45;;
42384;SDS011;28042;43.986;22.860;2023-06-10T07:35:01;4.07;;;2.80;;
42384;SDS011;28042;43.986;22.860;2023-06-10T07:37:27;8.07;;;2.92;;
42384;SDS011;28042;43.986;22.860;2023-06-10T07:39:52;5.97;;;2.80;;
42384;SDS011;28042;43.986;22.860;2023-06-10T07:42:18;7.07;;;2.60;;
42384;SDS011;28042;43.986;22.860;2023-06-10T07:44:43;4.30;;;2.75;;
42384;SDS011;28042;43.986;22.860;2023-06-10T07:47:09;5.57;;;2.65;;
42384;SDS011;28042;43.986;22.860;2023-06-10T07:49:34;7.55;;;2.88;;
42384;SDS011;28042;43.986;22.860;2023-06-10T07:52:00;4.50;;;3.03;;
42384;SDS011;28042;43.986;22.860;2023-06-10T07:54:25;6.45;;;2.72;;
42384;SDS011;28042;43.986;22.860;2023-06-10T07:56:51;3.80;;;2.50;;
42384;SDS011;28042;43.986;22.860;2023-06-10T07:59:17;6.10;;;2.80;;
42384;SDS011;28042;43.986;22.860;2023-06-10T08:01:43;9.85;;;3.28;;
42384;SDS011;28042;43.986;22.860;2023-06-10T08:04:08;7.20;;;3.03;;
42384;SDS011;28042;43.986;22.860;2023-06-10T08:06:34;5.35;;;2.50;;
42384;SDS011;28042;43.986;22.860;2023-06-10T08:09:01;4.78;;;2.90;;
42384;SDS011;28042;43.986;22.860;2023-06-10T08:11:27;3.10;;;2.55;;
42384;SDS011;28042;43.986;22.860;2023-06-10T08:13:54;5.20;;;2.78;;
42384;SDS011;28042;43.986;22.860;2023-06-10T08:16:20;7.57;;;3.22;;
42384;SDS011;28042;43.986;22.860;2023-06-10T08:18:45;4.30;;;2.92;;
42384;SDS011;28042;43.986;22.860;2023-06-10T08:21:11;4.30;;;2.70;;
42384;SDS011;28042;43.986;22.860;2023-06-10T08:23:37;5.20;;;2.83;;
42384;SDS011;28042;43.986;22.860;2023-06-10T08:26:02;6.15;;;2.67;;
42384;SDS011;28042;43.986;22.860;2023-06-10T08:28:27;5.50;;;2.63;;
42384;SDS011;28042;43.986;22.860;2023-06-10T08:30:53;4.03;;;2.40;;
42384;SDS011;28042;43.986;22.860;2023-06-10T08:33:18;8.60;;;3.20;;
42384;SDS011;28042;43.986;22.860;2023-06-10T08:35:44;6.15;;;3.10;;
42384;SDS011;28042;43.986;22.860;2023-06-10T08:38:10;7.82;;;2.95;;
42384;SDS011;28042;43.986;22.860;2023-06-10T08:40:35;4.72;;;2.97;;
42384;SDS011;28042;43.986;22.860;2023-06-10T08:43:05;7.40;;;3.00;;
42384;SDS011;28042;43.986;22.860;2023-06-10T08:45:32;5.45;;;3.15;;
42384;SDS011;28042;43.986;22.860;2023-06-10T08:48:00;4.63;;;2.67;;
42384;SDS011;28042;43.986;22.860;2023-06-10T08:50:31;5.45;;;2.83;;
42384;SDS011;28042;43.986;22.860;2023-06-10T08:53:00;5.40;;;3.13;;
42384;SDS011;28042;43.986;22.860;2023-06-10T08:55:29;6.30;;;3.07;;
42384;SDS011;28042;43.986;22.860;2023-06-10T08:57:57;5.75;;;3.08;;
42384;SDS011;28042;43.986;22.860;2023-06-10T09:00:24;6.38;;;3.22;;
42384;SDS011;28042;43.986;22.860;2023-06-10T09:02:51;6.93;;;3.10;;
42384;SDS011;28042;43.986;22.860;2023-06-10T09:05:17;5.85;;;3.00;;
42384;SDS011;28042;43.986;22.860;2023-06-10T09:07:42;5.32;;;2.70;;
42384;SDS011;28042;43.986;22.860;2023-06-10T09:10:09;8.37;;;3.57;;
42384;SDS011;28042;43.986;22.860;2023-06-10T09:12:36;6.43;;;3.10;;
42384;SDS011;28042;43.986;22.860;2023-06-10T09:15:03;5.93;;;3.10;;
42384;SDS011;28042;43.986;22.860;2023-06-10T09:17:29;5.85;;;2.97;;
42384;SDS011;28042;43.986;22.860;2023-06-10T09:19:55;4.70;;;2.97;;
42384;SDS011;28042;43.986;22.860;2023-06-10T09:22:22;8.55;;;3.45;;
42384;SDS011;28042;43.986;22.860;2023-06-10T09:24:48;5.38;;;2.63;;
42384;SDS011;28042;43.986;22.860;2023-06-10T09:27:14;5.97;;;3.03;;
42384;SDS011;28042;43.986;22.860;2023-06-10T09:29:47;6.30;;;2.92;;
42384;SDS011;28042;43.986;22.860;2023-06-10T09:32:17;5.80;;;3.03;;
42384;SDS011;28042;43.986;22.860;2023-06-10T09:34:43;6.38;;;3.35;;
42384;SDS011;28042;43.986;22.860;2023-06-10T09:37:09;6.18;;;3.70;;
42384;SDS011;28042;43.986;22.860;2023-06-10T09:39:37;9.70;;;3.05;;
42384;SDS011;28042;43.986;22.860;2023-06-10T09:42:16;6.90;;;3.20;;
42384;SDS011;28042;43.986;22.860;2023-06-10T09:44:48;6.25;;;3.20;;
42384;SDS011;28042;43.986;22.860;2023-06-10T09:47:19;5.50;;;2.72;;
42384;SDS011;28042;43.986;22.860;2023-06-10T09:49:45;4.05;;;2.83;;
42384;SDS011;28042;43.986;22.860;2023-06-10T09:52:11;4.75;;;2.72;;
42384;SDS011;28042;43.986;22.860;2023-06-10T09:54:36;6.15;;;2.85;;
42384;SDS011;28042;43.986;22.860;2023-06-10T09:57:06;8.93;;;3.13;;
42384;SDS011;28042;43.986;22.860;2023-06-10T09:59:35;5.78;;;2.88;;
42384;SDS011;28042;43.986;22.860;2023-06-10T10:02:02;4.78;;;2.83;;
42384;SDS011;28042;43.986;22.860;2023-06-10T10:04:29;6.47;;;3.47;;
42384;SDS011;28042;43.986;22.860;2023-06-10T10:06:55;4.28;;;2.60;;
42384;SDS011;28042;43.986;22.860;2023-06-10T10:09:20;7.40;;;2.92;;
42384;SDS011;28042;43.986;22.860;2023-06-10T10:11:46;4.35;;;2.72;;
42384;SDS011;28042;43.986;22.860;2023-06-10T10:16:41;5.30;;;2.58;;
42384;SDS011;28042;43.986;22.860;2023-06-10T10:19:10;6.47;;;2.90;;
42384;SDS011;28042;43.986;22.860;2023-06-10T10:21:45;7.75;;;3.40;;
42384;SDS011;28042;43.986;22.860;2023-06-10T10:24:18;6.72;;;3.45;;
42384;SDS011;28042;43.986;22.860;2023-06-10T10:26:47;4.43;;;2.53;;
42384;SDS011;28042;43.986;22.860;2023-06-10T10:29:16;9.98;;;3.15;;
42384;SDS011;28042;43.986;22.860;2023-06-10T10:31:43;9.32;;;2.85;;
42384;SDS011;28042;43.986;22.860;2023-06-10T10:34:19;10.25;;;3.00;;
42384;SDS011;28042;43.986;22.860;2023-06-10T10:36:50;7.57;;;2.55;;
42384;SDS011;28042;43.986;22.860;2023-06-10T10:39:15;7.90;;;2.67;;
42384;SDS011;28042;43.986;22.860;2023-06-10T10:41:42;7.13;;;3.13;;
42384;SDS011;28042;43.986;22.860;2023-06-10T10:44:08;33.13;;;4.97;;
42384;SDS011;28042;43.986;22.860;2023-06-10T10:46:41;7.50;;;2.75;;
42384;SDS011;28042;43.986;22.860;2023-06-10T10:49:08;6.90;;;2.35;;
42384;SDS011;28042;43.986;22.860;2023-06-10T10:51:35;4.90;;;2.90;;
42384;SDS011;28042;43.986;22.860;2023-06-10T10:54:14;9.43;;;2.65;;
42384;SDS011;28042;43.986;22.860;2023-06-10T10:57:06;5.97;;;3.20;;
42384;SDS011;28042;43.986;22.860;2023-06-10T10:59:57;4.82;;;2.67;;
42384;SDS011;28042;43.986;22.860;2023-06-10T11:05:09;4.47;;;2.83;;
42384;SDS011;28042;43.986;22.860;2023-06-10T11:07:36;8.70;;;3.00;;
42384;SDS011;28042;43.986;22.860;2023-06-10T11:10:03;7.93;;;2.97;;
42384;SDS011;28042;43.986;22.860;2023-06-10T11:15:20;7.15;;;3.20;;
42384;SDS011;28042;43.986;22.860;2023-06-10T11:18:07;5.60;;;2.88;;
42384;SDS011;28042;43.986;22.860;2023-06-10T11:20:45;4.88;;;2.80;;
42384;SDS011;28042;43.986;22.860;2023-06-10T11:33:56;6.05;;;3.03;;
42384;SDS011;28042;43.986;22.860;2023-06-10T11:36:23;5.85;;;3.20;;
42384;SDS011;28042;43.986;22.860;2023-06-10T11:39:10;4.50;;;2.53;;
42384;SDS011;28042;43.986;22.860;2023-06-10T11:41:37;7.75;;;2.85;;
42384;SDS011;28042;43.986;22.860;2023-06-10T11:44:12;4.72;;;3.00;;
42384;SDS011;28042;43.986;22.860;2023-06-10T11:46:38;4.10;;;2.70;;
42384;SDS011;28042;43.986;22.860;2023-06-10T11:49:05;6.13;;;2.70;;
42384;SDS011;28042;43.986;22.860;2023-06-10T11:51:32;5.53;;;3.00;;
42384;SDS011;28042;43.986;22.860;2023-06-10T11:54:00;6.47;;;2.92;;
42384;SDS011;28042;43.986;22.860;2023-06-10T11:56:26;7.07;;;3.10;;
42384;SDS011;28042;43.986;22.860;2023-06-10T11:58:54;8.85;;;2.97;;
42384;SDS011;28042;43.986;22.860;2023-06-10T12:01:20;6.75;;;3.00;;
42384;SDS011;28042;43.986;22.860;2023-06-10T12:03:47;9.00;;;3.08;;
42384;SDS011;28042;43.986;22.860;2023-06-10T12:06:12;4.80;;;2.88;;
42384;SDS011;28042;43.986;22.860;2023-06-10T12:08:41;6.90;;;3.30;;
42384;SDS011;28042;43.986;22.860;2023-06-10T12:11:07;10.63;;;3.42;;
42384;SDS011;28042;43.986;22.860;2023-06-10T12:13:33;5.25;;;2.97;;
42384;SDS011;28042;43.986;22.860;2023-06-10T12:16:11;4.00;;;2.85;;
42384;SDS011;28042;43.986;22.860;2023-06-10T12:18:36;8.73;;;2.83;;
42384;SDS011;28042;43.986;22.860;2023-06-10T12:21:02;6.38;;;3.13;;
42384;SDS011;28042;43.986;22.860;2023-06-10T12:23:28;5.20;;;2.90;;
42384;SDS011;28042;43.986;22.860;2023-06-10T12:25:54;6.88;;;2.85;;
42384;SDS011;28042;43.986;22.860;2023-06-10T12:28:24;10.48;;;2.78;;
42384;SDS011;28042;43.986;22.860;2023-06-10T12:30:51;4.38;;;2.90;;
42384;SDS011;28042;43.986;22.860;2023-06-10T12:33:17;7.13;;;2.88;;
42384;SDS011;28042;43.986;22.860;2023-06-10T12:35:50;4.82;;;2.70;;
42384;SDS011;28042;43.986;22.860;2023-06-10T12:38:21;6.93;;;3.00;;
42384;SDS011;28042;43.986;22.860;2023-06-10T12:40:49;7.30;;;3.10;;
42384;SDS011;28042;43.986;22.860;2023-06-10T12:43:21;6.35;;;3.22;;
42384;SDS011;28042;43.986;22.860;2023-06-10T12:45:49;5.25;;;2.83;;
42384;SDS011;28042;43.986;22.860;2023-06-10T12:48:19;7.57;;;2.70;;
42384;SDS011;28042;43.986;22.860;2023-06-10T12:50:50;8.68;;;3.25;;
42384;SDS011;28042;43.986;22.860;2023-06-10T12:53:20;5.57;;;2.83;;
42384;SDS011;28042;43.986;22.860;2023-06-10T12:55:46;5.32;;;2.80;;
42384;SDS011;28042;43.986;22.860;2023-06-10T12:58:12;4.68;;;2.80;;
42384;SDS011;28042;43.986;22.860;2023-06-10T13:00:38;3.53;;;2.75;;
42384;SDS011;28042;43.986;22.860;2023-06-10T13:03:04;6.00;;;2.53;;
42384;SDS011;28042;43.986;22.860;2023-06-10T13:05:34;8.48;;;3.20;;
42384;SDS011;28042;43.986;22.860;2023-06-10T13:08:04;5.05;;;2.92;;
42384;SDS011;28042;43.986;22.860;2023-06-10T13:10:32;9.48;;;3.00;;
42384;SDS011;28042;43.986;22.860;2023-06-10T13:12:59;5.05;;;3.05;;
42384;SDS011;28042;43.986;22.860;2023-06-10T13:15:26;6.45;;;2.78;;
42384;SDS011;28042;43.986;22.860;2023-06-10T13:17:51;6.68;;;3.35;;
42384;SDS011;28042;43.986;22.860;2023-06-10T13:20:17;6.55;;;3.42;;
42384;SDS011;28042;43.986;22.860;2023-06-10T13:22:44;4.93;;;3.13;;
42384;SDS011;28042;43.986;22.860;2023-06-10T13:25:10;7.75;;;2.90;;
42384;SDS011;28042;43.986;22.860;2023-06-10T13:27:36;9.70;;;3.13;;
42384;SDS011;28042;43.986;22.860;2023-06-10T13:30:06;3.85;;;2.50;;
42384;SDS011;28042;43.986;22.860;2023-06-10T13:32:32;4.53;;;2.47;;
42384;SDS011;28042;43.986;22.860;2023-06-10T13:34:58;5.45;;;2.80;;
42384;SDS011;28042;43.986;22.860;2023-06-10T13:37:23;6.93;;;2.33;;
42384;SDS011;28042;43.986;22.860;2023-06-10T13:39:49;5.50;;;2.63;;
42384;SDS011;28042;43.986;22.860;2023-06-10T13:42:16;5.95;;;2.47;;
42384;SDS011;28042;43.986;22.860;2023-06-10T13:44:45;4.82;;;2.70;;
42384;SDS011;28042;43.986;22.860;2023-06-10T13:47:12;8.38;;;2.03;;
42384;SDS011;28042;43.986;22.860;2023-06-10T13:49:38;4.22;;;2.50;;
42384;SDS011;28042;43.986;22.860;2023-06-10T13:52:03;7.50;;;2.60;;
42384;SDS011;28042;43.986;22.860;2023-06-10T13:54:29;6.85;;;2.83;;
42384;SDS011;28042;43.986;22.860;2023-06-10T13:56:55;6.72;;;2.40;;
42384;SDS011;28042;43.986;22.860;2023-06-10T13:59:20;4.63;;;2.58;;
42384;SDS011;28042;43.986;22.860;2023-06-10T14:01:46;7.80;;;3.15;;
42384;SDS011;28042;43.986;22.860;2023-06-10T14:04:12;14.85;;;3.58;;
42384;SDS011;28042;43.986;22.860;2023-06-10T14:06:37;6.05;;;2.58;;
42384;SDS011;28042;43.986;22.860;2023-06-10T14:09:03;7.75;;;3.22;;
42384;SDS011;28042;43.986;22.860;2023-06-10T14:11:29;9.95;;;3.83;;
42384;SDS011;28042;43.986;22.860;2023-06-10T14:13:54;11.27;;;4.10;;
42384;SDS011;28042;43.986;22.860;2023-06-10T14:16:23;6.30;;;3.67;;
42384;SDS011;28042;43.986;22.860;2023-06-10T14:18:49;5.75;;;4.10;;
42384;SDS011;28042;43.986;22.860;2023-06-10T14:21:18;9.15;;;4.18;;
42384;SDS011;28042;43.986;22.860;2023-06-10T14:23:44;12.02;;;4.07;;
42384;SDS011;28042;43.986;22.860;2023-06-10T14:26:10;6.68;;;4.25;;
42384;SDS011;28042;43.986;22.860;2023-06-10T14:28:36;8.23;;;4.22;;
42384;SDS011;28042;43.986;22.860;2023-06-10T14:31:02;5.43;;;3.90;;
42384;SDS011;28042;43.986;22.860;2023-06-10T14:33:27;4.65;;;3.58;;
42384;SDS011;28042;43.986;22.860;2023-06-10T14:35:53;6.68;;;3.10;;
42384;SDS011;28042;43.986;22.860;2023-06-10T14:38:18;4.97;;;3.10;;
42384;SDS011;28042;43.986;22.860;2023-06-10T14:40:44;10.55;;;4.25;;
42384;SDS011;28042;43.986;22.860;2023-06-10T14:43:09;6.43;;;3.70;;
42384;SDS011;28042;43.986;22.860;2023-06-10T14:45:38;26.90;;;4.88;;
42384;SDS011;28042;43.986;22.860;2023-06-10T14:48:05;8.25;;;4.60;;
42384;SDS011;28042;43.986;22.860;2023-06-10T14:50:31;7.90;;;3.80;;
42384;SDS011;28042;43.986;22.860;2023-06-10T14:52:57;5.75;;;4.15;;
42384;SDS011;28042;43.986;22.860;2023-06-10T14:55:23;10.77;;;4.20;;
42384;SDS011;28042;43.986;22.860;2023-06-10T14:57:49;9.65;;;3.85;;
42384;SDS011;28042;43.986;22.860;2023-06-10T15:00:15;10.05;;;4.50;;
42384;SDS011;28042;43.986;22.860;2023-06-10T15:02:44;9.52;;;4.45;;
42384;SDS011;28042;43.986;22.860;2023-06-10T15:05:12;9.82;;;4.95;;
42384;SDS011;28042;43.986;22.860;2023-06-10T15:07:40;9.48;;;4.63;;
42384;SDS011;28042;43.986;22.860;2023-06-10T15:10:05;8.52;;;4.78;;
42384;SDS011;28042;43.986;22.860;2023-06-10T15:12:31;6.43;;;4.45;;
42384;SDS011;28042;43.986;22.860;2023-06-10T15:14:56;8.38;;;4.30;;
42384;SDS011;28042;43.986;22.860;2023-06-10T15:17:22;8.23;;;4.30;;
42384;SDS011;28042;43.986;22.860;2023-06-10T15:19:47;10.38;;;4.72;;
42384;SDS011;28042;43.986;22.860;2023-06-10T15:22:13;5.68;;;3.95;;
42384;SDS011;28042;43.986;22.860;2023-06-10T15:24:38;8.93;;;4.45;;
42384;SDS011;28042;43.986;22.860;2023-06-10T15:27:04;8.27;;;4.35;;
42384;SDS011;28042;43.986;22.860;2023-06-10T15:29:30;5.93;;;4.30;;
42384;SDS011;28042;43.986;22.860;2023-06-10T15:31:56;6.90;;;3.95;;
42384;SDS011;28042;43.986;22.860;2023-06-10T15:34:21;8.27;;;4.75;;
42384;SDS011;28042;43.986;22.860;2023-06-10T15:36:47;7.72;;;4.45;;
42384;SDS011;28042;43.986;22.860;2023-06-10T15:39:13;10.40;;;4.68;;
42384;SDS011;28042;43.986;22.860;2023-06-10T15:41:38;6.60;;;4.80;;
42384;SDS011;28042;43.986;22.860;2023-06-10T15:44:04;7.13;;;4.32;;
42384;SDS011;28042;43.986;22.860;2023-06-10T15:46:29;8.35;;;4.50;;
42384;SDS011;28042;43.986;22.860;2023-06-10T15:48:55;10.77;;;4.65;;
42384;SDS011;28042;43.986;22.860;2023-06-10T15:51:21;8.35;;;4.38;;
42384;SDS011;28042;43.986;22.860;2023-06-10T15:53:48;6.47;;;3.95;;
42384;SDS011;28042;43.986;22.860;2023-06-10T15:56:14;5.85;;;3.72;;
42384;SDS011;28042;43.986;22.860;2023-06-10T15:58:40;14.03;;;4.67;;
42384;SDS011;28042;43.986;22.860;2023-06-10T16:01:06;7.82;;;4.30;;
42384;SDS011;28042;43.986;22.860;2023-06-10T16:03:33;5.93;;;4.13;;
42384;SDS011;28042;43.986;22.860;2023-06-10T16:05:58;6.30;;;4.20;;
42384;SDS011;28042;43.986;22.860;2023-06-10T16:08:24;6.28;;;3.45;;
42384;SDS011;28042;43.986;22.860;2023-06-10T16:10:49;6.78;;;3.45;;
42384;SDS011;28042;43.986;22.860;2023-06-10T16:13:15;7.00;;;3.78;;
42384;SDS011;28042;43.986;22.860;2023-06-10T16:15:41;4.20;;;3.22;;
42384;SDS011;28042;43.986;22.860;2023-06-10T16:18:06;6.18;;;3.47;;
42384;SDS011;28042;43.986;22.860;2023-06-10T16:20:32;4.97;;;3.47;;
42384;SDS011;28042;43.986;22.860;2023-06-10T16:23:00;5.82;;;3.63;;
42384;SDS011;28042;43.986;22.860;2023-06-10T16:25:27;8.45;;;3.97;;
42384;SDS011;28042;43.986;22.860;2023-06-10T16:27:52;6.00;;;4.03;;
42384;SDS011;28042;43.986;22.860;2023-06-10T16:30:18;6.85;;;4.07;;
42384;SDS011;28042;43.986;22.860;2023-06-10T16:32:43;11.63;;;4.15;;
42384;SDS011;28042;43.986;22.860;2023-06-10T16:35:09;7.20;;;4.07;;
42384;SDS011;28042;43.986;22.860;2023-06-10T16:37:34;10.50;;;3.80;;
42384;SDS011;28042;43.986;22.860;2023-06-10T16:40:00;5.43;;;3.60;;
42384;SDS011;28042;43.986;22.860;2023-06-10T16:42:25;7.93;;;3.53;;
42384;SDS011;28042;43.986;22.860;2023-06-10T16:44:51;7.03;;;3.53;;
42384;SDS011;28042;43.986;22.860;2023-06-10T16:47:17;5.68;;;3.78;;
42384;SDS011;28042;43.986;22.860;2023-06-10T16:49:42;4.43;;;3.22;;
42384;SDS011;28042;43.986;22.860;2023-06-10T16:52:08;5.57;;;3.70;;
42384;SDS011;28042;43.986;22.860;2023-06-10T16:54:33;5.10;;;3.67;;
42384;SDS011;28042;43.986;22.860;2023-06-10T16:56:58;4.90;;;3.65;;
42384;SDS011;28042;43.986;22.860;2023-06-10T16:59:24;9.27;;;4.72;;
42384;SDS011;28042;43.986;22.860;2023-06-10T17:01:49;9.93;;;4.28;;
42384;SDS011;28042;43.986;22.860;2023-06-10T17:04:15;5.90;;;3.85;;
42384;SDS011;28042;43.986;22.860;2023-06-10T17:06:42;5.95;;;4.05;;
42384;SDS011;28042;43.986;22.860;2023-06-10T17:09:07;6.38;;;4.63;;
42384;SDS011;28042;43.986;22.860;2023-06-10T17:11:33;7.53;;;4.40;;
42384;SDS011;28042;43.986;22.860;2023-06-10T17:13:58;7.93;;;4.95;;
42384;SDS011;28042;43.986;22.860;2023-06-10T17:16:24;6.65;;;4.30;;
42384;SDS011;28042;43.986;22.860;2023-06-10T17:18:50;9.05;;;4.50;;
42384;SDS011;28042;43.986;22.860;2023-06-10T17:21:15;8.50;;;4.75;;
42384;SDS011;28042;43.986;22.860;2023-06-10T17:23:41;10.02;;;5.20;;
42384;SDS011;28042;43.986;22.860;2023-06-10T17:26:06;8.07;;;5.22;;
42384;SDS011;28042;43.986;22.860;2023-06-10T17:28:32;10.10;;;5.43;;
42384;SDS011;28042;43.986;22.860;2023-06-10T17:30:57;10.10;;;5.35;;
42384;SDS011;28042;43.986;22.860;2023-06-10T17:33:22;7.45;;;5.00;;
42384;SDS011;28042;43.986;22.860;2023-06-10T17:35:48;6.68;;;4.95;;
42384;SDS011;28042;43.986;22.860;2023-06-10T17:38:14;12.90;;;5.20;;
42384;SDS011;28042;43.986;22.860;2023-06-10T17:43:07;11.75;;;5.47;;
42384;SDS011;28042;43.986;22.860;2023-06-10T17:45:32;8.73;;;5.20;;
42384;SDS011;28042;43.986;22.860;2023-06-10T17:47:58;13.65;;;5.13;;
42384;SDS011;28042;43.986;22.860;2023-06-10T17:50:23;13.25;;;6.13;;
42384;SDS011;28042;43.986;22.860;2023-06-10T17:52:49;10.68;;;5.75;;
42384;SDS011;28042;43.986;22.860;2023-06-10T17:55:15;9.07;;;5.82;;
42384;SDS011;28042;43.986;22.860;2023-06-10T17:57:40;10.57;;;5.45;;
42384;SDS011;28042;43.986;22.860;2023-06-10T18:00:06;9.32;;;5.53;;
42384;SDS011;28042;43.986;22.860;2023-06-10T18:02:32;9.07;;;5.38;;
42384;SDS011;28042;43.986;22.860;2023-06-10T18:04:57;6.88;;;4.15;;
42384;SDS011;28042;43.986;22.860;2023-06-10T18:07:23;7.80;;;4.20;;
42384;SDS011;28042;43.986;22.860;2023-06-10T18:09:48;8.57;;;3.88;;
42384;SDS011;28042;43.986;22.860;2023-06-10T18:12:14;10.45;;;4.50;;
42384;SDS011;28042;43.986;22.860;2023-06-10T18:14:39;8.15;;;4.32;;
42384;SDS011;28042;43.986;22.860;2023-06-10T18:17:05;7.65;;;4.03;;
42384;SDS011;28042;43.986;22.860;2023-06-10T18:19:30;6.82;;;4.35;;
42384;SDS011;28042;43.986;22.860;2023-06-10T18:21:56;5.35;;;3.67;;
42384;SDS011;28042;43.986;22.860;2023-06-10T18:24:22;6.97;;;4.55;;
42384;SDS011;28042;43.986;22.860;2023-06-10T18:26:47;9.63;;;4.65;;
42384;SDS011;28042;43.986;22.860;2023-06-10T18:29:13;7.55;;;4.32;;
42384;SDS011;28042;43.986;22.860;2023-06-10T18:31:39;5.50;;;4.28;;
42384;SDS011;28042;43.986;22.860;2023-06-10T18:34:04;13.68;;;4.97;;
42384;SDS011;28042;43.986;22.860;2023-06-10T18:36:30;11.05;;;5.80;;
42384;SDS011;28042;43.986;22.860;2023-06-10T18:38:55;10.95;;;6.78;;
42384;SDS011;28042;43.986;22.860;2023-06-10T18:41:24;12.15;;;7.35;;
42384;SDS011;28042;43.986;22.860;2023-06-10T18:43:51;12.60;;;7.93;;
42384;SDS011;28042;43.986;22.860;2023-06-10T18:46:16;28.63;;;15.80;;
42384;SDS011;28042;43.986;22.860;2023-06-10T18:48:42;35.00;;;19.00;;
42384;SDS011;28042;43.986;22.860;2023-06-10T18:51:10;35.63;;;19.30;;
42384;SDS011;28042;43.986;22.860;2023-06-10T18:53:35;33.03;;;19.63;;
42384;SDS011;28042;43.986;22.860;2023-06-10T18:56:01;38.10;;;21.77;;
42384;SDS011;28042;43.986;22.860;2023-06-10T18:58:28;38.13;;;20.83;;
42384;SDS011;28042;43.986;22.860;2023-06-10T19:01:00;30.88;;;19.48;;
42384;SDS011;28042;43.986;22.860;2023-06-10T19:03:27;34.50;;;17.85;;
42384;SDS011;28042;43.986;22.860;2023-06-10T19:05:54;21.27;;;13.85;;
42384;SDS011;28042;43.986;22.860;2023-06-10T19:08:20;23.83;;;13.48;;
42384;SDS011;28042;43.986;22.860;2023-06-10T19:10:45;18.83;;;10.88;;
42384;SDS011;28042;43.986;22.860;2023-06-10T19:13:11;20.27;;;9.70;;
42384;SDS011;28042;43.986;22.860;2023-06-10T19:15:36;18.35;;;9.35;;
42384;SDS011;28042;43.986;22.860;2023-06-10T19:18:02;13.52;;;7.03;;
42384;SDS011;28042;43.986;22.860;2023-06-10T19:20:27;10.80;;;5.80;;
42384;SDS011;28042;43.986;22.860;2023-06-10T19:22:53;8.32;;;4.88;;
42384;SDS011;28042;43.986;22.860;2023-06-10T19:25:18;8.73;;;5.53;;
42384;SDS011;28042;43.986;22.860;2023-06-10T19:27:45;8.32;;;4.78;;
42384;SDS011;28042;43.986;22.860;2023-06-10T19:30:11;5.72;;;3.85;;
42384;SDS011;28042;43.986;22.860;2023-06-10T19:32:37;6.90;;;4.63;;
42384;SDS011;28042;43.986;22.860;2023-06-10T19:35:02;10.60;;;4.53;;
42384;SDS011;28042;43.986;22.860;2023-06-10T19:37:28;7.20;;;4.28;;
42384;SDS011;28042;43.986;22.860;2023-06-10T19:39:55;9.50;;;5.03;;
42384;SDS011;28042;43.986;22.860;2023-06-10T19:42:20;7.20;;;4.05;;
42384;SDS011;28042;43.986;22.860;2023-06-10T19:44:46;9.98;;;4.50;;
42384;SDS011;28042;43.986;22.860;2023-06-10T19:47:11;8.40;;;4.30;;
42384;SDS011;28042;43.986;22.860;2023-06-10T19:49:37;9.63;;;4.22;;
42384;SDS011;28042;43.986;22.860;2023-06-10T19:52:02;7.40;;;4.00;;
42384;SDS011;28042;43.986;22.860;2023-06-10T19:54:31;6.85;;;4.30;;
42384;SDS011;28042;43.986;22.860;2023-06-10T19:56:58;9.27;;;4.40;;
42384;SDS011;28042;43.986;22.860;2023-06-10T19:59:24;7.75;;;4.63;;
42384;SDS011;28042;43.986;22.860;2023-06-10T20:01:49;9.18;;;4.78;;
42384;SDS011;28042;43.986;22.860;2023-06-10T20:04:15;11.93;;;5.00;;
42384;SDS011;28042;43.986;22.860;2023-06-10T20:06:40;8.18;;;4.90;;
42384;SDS011;28042;43.986;22.860;2023-06-10T20:09:06;8.60;;;5.25;;
42384;SDS011;28042;43.986;22.860;2023-06-10T20:11:31;9.73;;;5.70;;
42384;SDS011;28042;43.986;22.860;2023-06-10T20:13:57;12.93;;;6.85;;
42384;SDS011;28042;43.986;22.860;2023-06-10T20:16:22;9.40;;;5.38;;
42384;SDS011;28042;43.986;22.860;2023-06-10T20:18:50;10.75;;;5.93;;
42384;SDS011;28042;43.986;22.860;2023-06-10T20:21:18;7.82;;;5.75;;
42384;SDS011;28042;43.986;22.860;2023-06-10T20:23:47;11.45;;;6.20;;
42384;SDS011;28042;43.986;22.860;2023-06-10T20:26:12;11.60;;;6.22;;
42384;SDS011;28042;43.986;22.860;2023-06-10T20:28:38;8.02;;;6.18;;
42384;SDS011;28042;43.986;22.860;2023-06-10T20:31:04;10.00;;;6.40;;
42384;SDS011;28042;43.986;22.860;2023-06-10T20:33:30;12.05;;;6.80;;
42384;SDS011;28042;43.986;22.860;2023-06-10T20:35:55;10.27;;;5.88;;
42384;SDS011;28042;43.986;22.860;2023-06-10T20:38:22;8.48;;;6.20;;
42384;SDS011;28042;43.986;22.860;2023-06-10T20:40:48;9.57;;;6.32;;